sensor_id;sensor_type;location;lat;lon;timestamp;pressure;altitude;pressure_sealevel;temperature;humidity
32735;BME280;19112;51.076;3.706;2023-07-13T00:02:24;101387.72;;;19.36;63.71
32735;BME280;19112;51.076;3.706;2023-07-13T00:04:50;101388.59;;;19.34;63.99
32735;BME280;19112;51.076;3.706;2023-07-13T00:07:16;101260.34;;;18.59;64.00
32735;BME280;19112;51.076;3.706;2023-07-13T00:09:46;101389.47;;;19.28;64.13
32735;BME280;19112;51.076;3.706;2023-07-13T00:12:30;101164.22;;;18.05;64.19
32735;BME280;19112;51.076;3.706;2023-07-13T00:15:06;101229.19;;;18.43;64.25
32735;BME280;19112;51.076;3.706;2023-07-13T00:17:32;101171.28;;;17.96;64.27
32735;BME280;19112;51.076;3.706;2023-07-13T00:19:58;101253.09;;;18.38;64.33
32735;BME280;19112;51.076;3.706;2023-07-13T00:22:25;101403.59;;;19.21;64.84
32735;BME280;19112;51.076;3.706;2023-07-13T00:24:53;100849.31;;;16.07;64.60
32735;BME280;19112;51.076;3.706;2023-07-13T00:27:21;101412.44;;;19.14;64.89
32735;BME280;19112;51.076;3.706;2023-07-13T00:29:47;101058.19;;;17.22;64.86
32735;BME280;19112;51.076;3.706;2023-07-13T00:32:13;101258.38;;;18.33;64.96
32735;BME280;19112;51.076;3.706;2023-07-13T00:34:39;101243.25;;;18.25;65.13
32735;BME280;19112;51.076;3.706;2023-07-13T00:37:06;101218.31;;;18.11;65.24
32735;BME280;19112;51.076;3.706;2023-07-13T00:39:36;101311.72;;;18.56;65.23
32735;BME280;19112;51.076;3.706;2023-07-13T00:42:03;101176.41;;;17.76;65.28
32735;BME280;19112;51.076;3.706;2023-07-13T00:44:30;101399.00;;;18.99;65.63
32735;BME280;19112;51.076;3.706;2023-07-13T00:46:56;101049.97;;;16.99;65.45
32735;BME280;19112;51.076;3.706;2023-07-13T00:49:27;101263.63;;;18.24;65.61
32735;BME280;19112;51.076;3.706;2023-07-13T00:52:04;101122.13;;;17.48;65.56
32735;BME280;19112;51.076;3.706;2023-07-13T00:54:40;101254.75;;;18.24;65.87
32735;BME280;19112;51.076;3.706;2023-07-13T00:57:19;101342.00;;;18.68;66.24
32735;BME280;19112;51.076;3.706;2023-07-13T00:59:55;101393.63;;;18.94;66.34
32735;BME280;19112;51.076;3.706;2023-07-13T01:02:25;101327.66;;;18.50;66.28
32735;BME280;19112;51.076;3.706;2023-07-13T01:04:51;101150.44;;;17.47;66.58
32735;BME280;19112;51.076;3.706;2023-07-13T01:07:18;101313.13;;;18.13;66.82
32735;BME280;19112;51.076;3.706;2023-07-13T01:09:45;101328.44;;;18.39;66.95
32735;BME280;19112;51.076;3.706;2023-07-13T01:12:11;101238.47;;;17.86;66.93
32735;BME280;19112;51.076;3.706;2023-07-13T01:14:37;101402.38;;;18.76;67.13
32735;BME280;19112;51.076;3.706;2023-07-13T01:17:04;101096.94;;;17.06;66.95
32735;BME280;19112;51.076;3.706;2023-07-13T01:22:16;101322.09;;;18.24;67.18
32735;BME280;19112;51.076;3.706;2023-07-13T01:24:47;101115.47;;;17.03;67.09
32735;BME280;19112;51.076;3.706;2023-07-13T01:27:21;101266.81;;;17.87;67.40
32735;BME280;19112;51.076;3.706;2023-07-13T01:29:47;101357.66;;;18.37;67.50
32735;BME280;19112;51.076;3.706;2023-07-13T01:32:18;101272.09;;;17.84;67.58
32735;BME280;19112;51.076;3.706;2023-07-13T01:34:51;101319.28;;;18.06;67.87
32735;BME280;19112;51.076;3.706;2023-07-13T01:37:20;101372.66;;;18.30;67.86
32735;BME280;19112;51.076;3.706;2023-07-13T01:39:47;101326.31;;;18.01;67.96
32735;BME280;19112;51.076;3.706;2023-07-13T01:42:13;101403.88;;;18.48;68.25
32735;BME280;19112;51.076;3.706;2023-07-13T01:44:39;101317.41;;;17.99;68.27
32735;BME280;19112;51.076;3.706;2023-07-13T01:47:05;101419.00;;;18.57;68.39
32735;BME280;19112;51.076;3.706;2023-07-13T01:49:31;101136.63;;;16.97;68.20
32735;BME280;19112;51.076;3.706;2023-07-13T01:51:57;101166.88;;;17.13;68.37
32735;BME280;19112;51.076;3.706;2023-07-13T01:54:23;101419.88;;;18.54;68.76
32735;BME280;19112;51.076;3.706;2023-07-13T01:56:49;101484.59;;;18.55;69.00
32735;BME280;19112;51.076;3.706;2023-07-13T01:59:15;101172.16;;;17.11;69.00
32735;BME280;19112;51.076;3.706;2023-07-13T02:01:41;101376.16;;;18.26;69.41
32735;BME280;19112;51.076;3.706;2023-07-13T02:04:07;101114.28;;;16.76;69.52
32735;BME280;19112;51.076;3.706;2023-07-13T02:06:33;101071.50;;;16.49;69.40
32735;BME280;19112;51.076;3.706;2023-07-13T02:08:59;101419.88;;;18.56;70.00
32735;BME280;19112;51.076;3.706;2023-07-13T02:11:25;101420.81;;;18.61;69.89
32735;BME280;19112;51.076;3.706;2023-07-13T02:13:59;101349.56;;;18.26;69.82
32735;BME280;19112;51.076;3.706;2023-07-13T02:16:25;101184.84;;;17.40;69.91
32735;BME280;19112;51.076;3.706;2023-07-13T02:18:51;101416.53;;;18.74;70.03
32735;BME280;19112;51.076;3.706;2023-07-13T02:21:17;101429.03;;;18.81;70.15
32735;BME280;19112;51.076;3.706;2023-07-13T02:23:43;101345.25;;;18.36;70.09
32735;BME280;19112;51.076;3.706;2023-07-13T02:26:10;101420.13;;;18.79;69.79
32735;BME280;19112;51.076;3.706;2023-07-13T02:28:36;101252.59;;;17.80;69.64
32735;BME280;19112;51.076;3.706;2023-07-13T02:31:10;101206.31;;;17.63;69.74
32735;BME280;19112;51.076;3.706;2023-07-13T02:33:36;101430.69;;;18.70;69.67
32735;BME280;19112;51.076;3.706;2023-07-13T02:36:03;101422.69;;;18.68;69.86
32735;BME280;19112;51.076;3.706;2023-07-13T02:38:32;101405.75;;;18.60;69.67
32735;BME280;19112;51.076;3.706;2023-07-13T02:41:06;101220.41;;;17.54;69.87
32735;BME280;19112;51.076;3.706;2023-07-13T02:43:33;101434.94;;;18.54;70.21
32735;BME280;19112;51.076;3.706;2023-07-13T02:46:01;101336.00;;;17.96;70.37
32735;BME280;19112;51.076;3.706;2023-07-13T02:48:33;101413.59;;;18.48;70.43
32735;BME280;19112;51.076;3.706;2023-07-13T02:50:59;101320.88;;;17.92;70.50
32735;BME280;19112;51.076;3.706;2023-07-13T02:53:25;101421.50;;;18.39;71.01
32735;BME280;19112;51.076;3.706;2023-07-13T02:55:52;101415.25;;;18.37;70.89
32735;BME280;19112;51.076;3.706;2023-07-13T02:58:18;101413.50;;;18.39;71.21
32735;BME280;19112;51.076;3.706;2023-07-13T03:00:46;101063.41;;;16.40;71.12
32735;BME280;19112;51.076;3.706;2023-07-13T03:03:16;101076.78;;;16.49;70.86
32735;BME280;19112;51.076;3.706;2023-07-13T03:05:43;101226.38;;;17.32;71.18
32735;BME280;19112;51.076;3.706;2023-07-13T03:08:16;101416.06;;;18.31;71.21
32735;BME280;19112;51.076;3.706;2023-07-13T03:10:43;101074.00;;;16.37;71.36
32735;BME280;19112;51.076;3.706;2023-07-13T03:13:09;101243.13;;;17.31;71.52
32735;BME280;19112;51.076;3.706;2023-07-13T03:15:34;101431.13;;;18.27;71.78
32735;BME280;19112;51.076;3.706;2023-07-13T03:18:00;101222.50;;;17.07;71.98
32735;BME280;19112;51.076;3.706;2023-07-13T03:20:26;101417.84;;;18.29;71.97
32735;BME280;19112;51.076;3.706;2023-07-13T03:22:52;101422.31;;;18.33;71.88
32735;BME280;19112;51.076;3.706;2023-07-13T03:25:18;101443.66;;;18.38;72.04
32735;BME280;19112;51.076;3.706;2023-07-13T03:27:44;101238.75;;;17.33;71.74
32735;BME280;19112;51.076;3.706;2023-07-13T03:30:10;101262.78;;;17.45;72.19
32735;BME280;19112;51.076;3.706;2023-07-13T03:32:36;101425.97;;;18.44;72.09
32735;BME280;19112;51.076;3.706;2023-07-13T03:35:02;101256.66;;;17.52;71.83
32735;BME280;19112;51.076;3.706;2023-07-13T03:37:28;101339.47;;;17.92;71.96
32735;BME280;19112;51.076;3.706;2023-07-13T03:39:54;101370.59;;;18.03;71.94
32735;BME280;19112;51.076;3.706;2023-07-13T03:42:20;101441.03;;;18.44;71.88
32735;BME280;19112;51.076;3.706;2023-07-13T03:44:46;101435.69;;;18.42;71.68
32735;BME280;19112;51.076;3.706;2023-07-13T03:47:18;101317.03;;;17.67;71.98
32735;BME280;19112;51.076;3.706;2023-07-13T03:49:43;101267.19;;;17.43;71.99
32735;BME280;19112;51.076;3.706;2023-07-13T03:52:09;101443.66;;;18.39;72.21
32735;BME280;19112;51.076;3.706;2023-07-13T03:54:35;101450.81;;;18.45;72.30
32735;BME280;19112;51.076;3.706;2023-07-13T03:57:01;101465.00;;;18.47;72.28
32735;BME280;19112;51.076;3.706;2023-07-13T03:59:27;101358.19;;;18.01;72.04
32735;BME280;19112;51.076;3.706;2023-07-13T04:01:53;101195.16;;;17.11;72.14
32735;BME280;19112;51.076;3.706;2023-07-13T04:04:19;101351.16;;;18.06;71.98
32735;BME280;19112;51.076;3.706;2023-07-13T04:06:44;101460.06;;;18.80;72.17
32735;BME280;19112;51.076;3.706;2023-07-13T04:09:10;101172.34;;;17.26;71.72
32735;BME280;19112;51.076;3.706;2023-07-13T04:11:36;101159.91;;;17.25;71.42
32735;BME280;19112;51.076;3.706;2023-07-13T04:14:02;101453.16;;;19.04;71.45
32735;BME280;19112;51.076;3.706;2023-07-13T04:16:29;101490.47;;;19.10;71.26
32735;BME280;19112;51.076;3.706;2023-07-13T04:18:56;101353.41;;;18.56;71.09
32735;BME280;19112;51.076;3.706;2023-07-13T04:21:29;101314.25;;;18.41;70.83
32735;BME280;19112;51.076;3.706;2023-07-13T04:23:55;101440.78;;;19.09;70.37
32735;BME280;19112;51.076;3.706;2023-07-13T04:26:21;101495.19;;;19.46;70.43
32735;BME280;19112;51.076;3.706;2023-07-13T04:28:50;101265.47;;;18.36;69.99
32735;BME280;19112;51.076;3.706;2023-07-13T04:31:16;101486.38;;;19.58;69.92
32735;BME280;19112;51.076;3.706;2023-07-13T04:33:42;101468.69;;;19.63;69.68
32735;BME280;19112;51.076;3.706;2023-07-13T04:36:09;101337.75;;;18.93;69.33
32735;BME280;19112;51.076;3.706;2023-07-13T04:38:35;101394.72;;;19.22;69.10
32735;BME280;19112;51.076;3.706;2023-07-13T04:41:05;101484.75;;;19.74;69.18
32735;BME280;19112;51.076;3.706;2023-07-13T04:43:32;101478.50;;;19.67;69.20
32735;BME280;19112;51.076;3.706;2023-07-13T04:46:14;101458.94;;;19.62;68.81
32735;BME280;19112;51.076;3.706;2023-07-13T04:48:41;101357.41;;;19.16;68.64
32735;BME280;19112;51.076;3.706;2023-07-13T04:51:07;101360.09;;;19.21;68.52
32735;BME280;19112;51.076;3.706;2023-07-13T04:53:34;100691.53;;;15.43;68.14
32735;BME280;19112;51.076;3.706;2023-07-13T04:56:00;101421.66;;;19.68;68.23
32735;BME280;19112;51.076;3.706;2023-07-13T04:58:29;101507.16;;;20.11;68.18
32735;BME280;19112;51.076;3.706;2023-07-13T05:01:03;101483.16;;;20.17;68.02
32735;BME280;19112;51.076;3.706;2023-07-13T05:03:29;101464.34;;;19.77;67.65
32735;BME280;19112;51.076;3.706;2023-07-13T05:06:04;101487.66;;;20.20;67.91
32735;BME280;19112;51.076;3.706;2023-07-13T05:08:31;101495.66;;;20.20;67.62
32735;BME280;19112;51.076;3.706;2023-07-13T05:11:00;101301.47;;;19.11;67.56
32735;BME280;19112;51.076;3.706;2023-07-13T05:13:26;101299.75;;;19.14;67.50
32735;BME280;19112;51.076;3.706;2023-07-13T05:16:04;101357.63;;;19.56;67.33
32735;BME280;19112;51.076;3.706;2023-07-13T05:18:31;101502.81;;;20.44;67.33
32735;BME280;19112;51.076;3.706;2023-07-13T05:21:09;101420.03;;;20.13;66.78
32735;BME280;19112;51.076;3.706;2023-07-13T05:23:36;101420.97;;;20.21;66.51
32735;BME280;19112;51.076;3.706;2023-07-13T05:26:03;101230.56;;;19.18;66.24
32735;BME280;19112;51.076;3.706;2023-07-13T05:28:31;101510.94;;;20.74;65.98
32735;BME280;19112;51.076;3.706;2023-07-13T05:30:57;101265.22;;;19.36;65.94
32735;BME280;19112;51.076;3.706;2023-07-13T05:33:23;101393.38;;;20.11;65.81
32735;BME280;19112;51.076;3.706;2023-07-13T05:35:49;101348.03;;;20.02;65.53
32735;BME280;19112;51.076;3.706;2023-07-13T05:38:15;101439.75;;;20.58;65.37
32735;BME280;19112;51.076;3.706;2023-07-13T05:40:45;101060.81;;;18.41;64.88
32735;BME280;19112;51.076;3.706;2023-07-13T05:43:12;101533.28;;;21.33;64.66
32735;BME280;19112;51.076;3.706;2023-07-13T05:45:45;101439.78;;;21.05;64.34
32735;BME280;19112;51.076;3.706;2023-07-13T05:48:11;101374.84;;;20.83;63.25
32735;BME280;19112;51.076;3.706;2023-07-13T05:50:36;101282.31;;;20.39;63.24
32735;BME280;19112;51.076;3.706;2023-07-13T05:53:02;101423.75;;;21.16;63.21
32735;BME280;19112;51.076;3.706;2023-07-13T05:55:28;101533.22;;;21.95;62.97
32735;BME280;19112;51.076;3.706;2023-07-13T05:57:54;101536.75;;;22.05;62.26
32735;BME280;19112;51.076;3.706;2023-07-13T06:00:20;101298.31;;;20.79;61.98
32735;BME280;19112;51.076;3.706;2023-07-13T06:02:46;101537.59;;;22.21;61.56
32735;BME280;19112;51.076;3.706;2023-07-13T06:05:13;100930.63;;;18.77;61.23
32735;BME280;19112;51.076;3.706;2023-07-13T06:07:39;101538.47;;;22.26;61.25
32735;BME280;19112;51.076;3.706;2023-07-13T06:10:05;101480.63;;;21.94;61.05
32735;BME280;19112;51.076;3.706;2023-07-13T06:12:31;101311.66;;;20.95;61.06
32735;BME280;19112;51.076;3.706;2023-07-13T06:14:57;101397.91;;;21.47;61.23
32735;BME280;19112;51.076;3.706;2023-07-13T06:17:23;101420.13;;;21.69;60.67
32735;BME280;19112;51.076;3.706;2023-07-13T06:19:48;101580.31;;;22.47;60.88
32735;BME280;19112;51.076;3.706;2023-07-13T06:22:14;101566.88;;;22.58;60.35
32735;BME280;19112;51.076;3.706;2023-07-13T06:24:40;101567.72;;;22.72;60.17
32735;BME280;19112;51.076;3.706;2023-07-13T06:27:06;101566.78;;;22.78;60.00
32735;BME280;19112;51.076;3.706;2023-07-13T06:29:32;101557.81;;;22.88;59.81
32735;BME280;19112;51.076;3.706;2023-07-13T06:31:58;101495.47;;;22.61;59.54
32735;BME280;19112;51.076;3.706;2023-07-13T06:34:23;101578.22;;;23.12;59.17
32735;BME280;19112;51.076;3.706;2023-07-13T06:36:49;101334.44;;;21.95;58.52
32735;BME280;19112;51.076;3.706;2023-07-13T06:39:15;101440.16;;;22.65;58.06
32735;BME280;19112;51.076;3.706;2023-07-13T06:41:41;101436.50;;;22.75;57.81
32735;BME280;19112;51.076;3.706;2023-07-13T06:44:07;101247.31;;;21.63;57.57
32735;BME280;19112;51.076;3.706;2023-07-13T06:46:33;101411.66;;;22.56;57.33
32735;BME280;19112;51.076;3.706;2023-07-13T06:48:58;101452.47;;;22.90;57.32
32735;BME280;19112;51.076;3.706;2023-07-13T06:51:24;100999.63;;;20.35;57.03
32735;BME280;19112;51.076;3.706;2023-07-13T06:53:51;101552.88;;;23.52;57.27
32735;BME280;19112;51.076;3.706;2023-07-13T06:56:17;101562.69;;;23.53;57.24
32735;BME280;19112;51.076;3.706;2023-07-13T06:58:43;101536.00;;;23.40;56.74
32735;BME280;19112;51.076;3.706;2023-07-13T07:01:09;101511.03;;;23.35;56.78
32735;BME280;19112;51.076;3.706;2023-07-13T07:03:35;101493.31;;;23.17;56.88
32735;BME280;19112;51.076;3.706;2023-07-13T07:06:22;101552.84;;;23.56;56.95
32735;BME280;19112;51.076;3.706;2023-07-13T07:08:51;101382.28;;;22.48;56.83
32735;BME280;19112;51.076;3.706;2023-07-13T07:11:22;101550.13;;;23.60;56.69
32735;BME280;19112;51.076;3.706;2023-07-13T07:13:49;101504.75;;;23.39;56.30
32735;BME280;19112;51.076;3.706;2023-07-13T07:16:15;101326.19;;;22.33;56.47
32735;BME280;19112;51.076;3.706;2023-07-13T07:18:41;101502.00;;;23.43;56.18
32735;BME280;19112;51.076;3.706;2023-07-13T07:21:07;101553.53;;;23.82;55.65
32735;BME280;19112;51.076;3.706;2023-07-13T07:23:33;101367.56;;;23.03;55.42
32735;BME280;19112;51.076;3.706;2023-07-13T07:25:59;101525.25;;;24.27;54.60
32735;BME280;19112;51.076;3.706;2023-07-13T07:28:25;101470.91;;;24.12;53.14
32735;BME280;19112;51.076;3.706;2023-07-13T07:30:56;101539.28;;;24.55;52.44
32735;BME280;19112;51.076;3.706;2023-07-13T07:33:23;101597.06;;;24.84;52.88
32735;BME280;19112;51.076;3.706;2023-07-13T07:35:49;101593.50;;;24.80;51.46
32735;BME280;19112;51.076;3.706;2023-07-13T07:38:15;101535.75;;;24.50;51.10
32735;BME280;19112;51.076;3.706;2023-07-13T07:40:41;101584.47;;;24.88;51.00
32735;BME280;19112;51.076;3.706;2023-07-13T07:43:09;101592.50;;;24.89;51.41
32735;BME280;19112;51.076;3.706;2023-07-13T07:45:35;101378.44;;;23.69;50.95
32735;BME280;19112;51.076;3.706;2023-07-13T07:48:01;101518.53;;;24.67;50.20
32735;BME280;19112;51.076;3.706;2023-07-13T07:50:28;101108.53;;;22.36;50.42
32735;BME280;19112;51.076;3.706;2023-07-13T07:52:54;101596.34;;;25.33;50.78
32735;BME280;19112;51.076;3.706;2023-07-13T07:55:22;101470.09;;;24.73;49.92
32735;BME280;19112;51.076;3.706;2023-07-13T07:57:49;101544.03;;;24.97;49.44
32735;BME280;19112;51.076;3.706;2023-07-13T08:00:15;101480.03;;;24.66;49.25
32735;BME280;19112;51.076;3.706;2023-07-13T08:02:43;101597.28;;;25.32;48.81
32735;BME280;19112;51.076;3.706;2023-07-13T08:05:09;101602.66;;;25.32;49.56
32735;BME280;19112;51.076;3.706;2023-07-13T08:07:37;101610.84;;;25.23;49.54
32735;BME280;19112;51.076;3.706;2023-07-13T08:10:05;101570.91;;;24.95;49.36
32735;BME280;19112;51.076;3.706;2023-07-13T08:12:35;101584.38;;;24.94;48.59
32735;BME280;19112;51.076;3.706;2023-07-13T08:15:01;101530.16;;;24.66;48.65
32735;BME280;19112;51.076;3.706;2023-07-13T08:17:27;101607.34;;;25.18;48.30
32735;BME280;19112;51.076;3.706;2023-07-13T08:19:52;101606.41;;;25.22;48.54
32735;BME280;19112;51.076;3.706;2023-07-13T08:22:18;101606.53;;;25.14;48.63
32735;BME280;19112;51.076;3.706;2023-07-13T08:24:44;101476.75;;;24.44;47.12
32735;BME280;19112;51.076;3.706;2023-07-13T08:27:13;101606.16;;;25.37;47.64
32735;BME280;19112;51.076;3.706;2023-07-13T08:29:39;101610.00;;;25.21;47.59
32735;BME280;19112;51.076;3.706;2023-07-13T08:32:06;101574.81;;;25.34;47.32
32735;BME280;19112;51.076;3.706;2023-07-13T08:34:35;101351.97;;;24.10;47.20
32735;BME280;19112;51.076;3.706;2023-07-13T08:37:02;101607.06;;;25.34;47.63
32735;BME280;19112;51.076;3.706;2023-07-13T08:39:30;101274.38;;;23.30;47.21
32735;BME280;19112;51.076;3.706;2023-07-13T08:47:30;101564.97;;;25.33;45.94
32735;BME280;19112;51.076;3.706;2023-07-13T08:49:58;101382.88;;;24.40;45.95
32735;BME280;19112;51.076;3.706;2023-07-13T08:52:35;101362.41;;;24.28;45.53
32735;BME280;19112;51.076;3.706;2023-07-13T08:55:40;101528.63;;;25.11;45.95
32735;BME280;19112;51.076;3.706;2023-07-13T08:58:14;101607.53;;;25.61;46.02
32735;BME280;19112;51.076;3.706;2023-07-13T09:03:59;101287.13;;;23.82;45.38
32735;BME280;19112;51.076;3.706;2023-07-13T09:06:49;101459.25;;;24.79;45.65
32735;BME280;19112;51.076;3.706;2023-07-13T09:15:04;101556.00;;;25.87;44.21
32735;BME280;19112;51.076;3.706;2023-07-13T09:17:49;101474.72;;;25.67;43.03
32735;BME280;19112;51.076;3.706;2023-07-13T09:20:50;101619.22;;;26.59;42.94
32735;BME280;19112;51.076;3.706;2023-07-13T09:23:22;101583.66;;;26.43;42.80
32735;BME280;19112;51.076;3.706;2023-07-13T09:25:53;101623.88;;;26.51;42.77
32735;BME280;19112;51.076;3.706;2023-07-13T09:28:29;101553.84;;;26.04;43.04
32735;BME280;19112;51.076;3.706;2023-07-13T09:33:41;101591.91;;;26.31;43.50
32735;BME280;19112;51.076;3.706;2023-07-13T09:36:30;101533.25;;;26.03;43.50
32735;BME280;19112;51.076;3.706;2023-07-13T09:39:26;101538.41;;;26.14;42.56
32735;BME280;19112;51.076;3.706;2023-07-13T09:45:00;101532.56;;;26.37;42.42
32735;BME280;19112;51.076;3.706;2023-07-13T09:47:28;101599.81;;;26.85;42.86
32735;BME280;19112;51.076;3.706;2023-07-13T09:50:06;101525.09;;;26.51;43.02
32735;BME280;19112;51.076;3.706;2023-07-13T09:52:50;101612.19;;;27.32;42.65
32735;BME280;19112;51.076;3.706;2023-07-13T09:55:38;101479.38;;;26.87;42.04
32735;BME280;19112;51.076;3.706;2023-07-13T09:58:15;101612.00;;;27.77;40.89
32735;BME280;19112;51.076;3.706;2023-07-13T10:00:44;101612.25;;;28.02;40.16
32735;BME280;19112;51.076;3.706;2023-07-13T10:03:22;101625.50;;;28.44;40.39
32735;BME280;19112;51.076;3.706;2023-07-13T10:05:50;101614.13;;;28.64;39.05
32735;BME280;19112;51.076;3.706;2023-07-13T10:08:29;101390.53;;;27.51;37.88
32735;BME280;19112;51.076;3.706;2023-07-13T10:11:17;101624.22;;;28.87;37.46
32735;BME280;19112;51.076;3.706;2023-07-13T10:13:58;101572.97;;;28.84;37.62
32735;BME280;19112;51.076;3.706;2023-07-13T10:16:30;101553.16;;;28.83;37.28
32735;BME280;19112;51.076;3.706;2023-07-13T10:19:26;101629.72;;;29.43;37.06
32735;BME280;19112;51.076;3.706;2023-07-13T10:22:24;101628.09;;;29.37;37.18
32735;BME280;19112;51.076;3.706;2023-07-13T10:24:53;101394.44;;;28.03;36.37
32735;BME280;19112;51.076;3.706;2023-07-13T10:27:30;101569.13;;;28.91;36.31
32735;BME280;19112;51.076;3.706;2023-07-13T10:30:24;101422.03;;;27.83;36.51
32735;BME280;19112;51.076;3.706;2023-07-13T10:33:00;101510.75;;;27.61;38.68
32735;BME280;19112;51.076;3.706;2023-07-13T10:35:29;101621.88;;;27.41;45.94
32735;BME280;19112;51.076;3.706;2023-07-13T10:38:14;101670.63;;;26.92;49.02
32735;BME280;19112;51.076;3.706;2023-07-13T10:41:07;101671.34;;;25.51;51.87
32735;BME280;19112;51.076;3.706;2023-07-13T10:43:43;101682.09;;;24.87;55.69
32735;BME280;19112;51.076;3.706;2023-07-13T10:46:15;101718.44;;;24.34;57.59
32735;BME280;19112;51.076;3.706;2023-07-13T10:48:45;101651.38;;;23.20;63.39
32735;BME280;19112;51.076;3.706;2023-07-13T10:51:14;101621.38;;;22.43;67.22
32735;BME280;19112;51.076;3.706;2023-07-13T10:53:41;101380.16;;;20.53;71.25
32735;BME280;19112;51.076;3.706;2023-07-13T10:58:42;101366.66;;;19.82;76.76
32735;BME280;19112;51.076;3.706;2023-07-13T11:01:18;101731.94;;;21.73;80.23
32735;BME280;19112;51.076;3.706;2023-07-13T11:03:50;101725.69;;;21.53;83.20
32735;BME280;19112;51.076;3.706;2023-07-13T11:08:56;101592.75;;;20.66;87.06
32735;BME280;19112;51.076;3.706;2023-07-13T11:11:37;101627.66;;;21.26;87.84
32735;BME280;19112;51.076;3.706;2023-07-13T11:14:25;101715.91;;;21.88;86.51
32735;BME280;19112;51.076;3.706;2023-07-13T11:16:52;101712.38;;;22.08;87.27
32735;BME280;19112;51.076;3.706;2023-07-13T11:22:13;101718.50;;;22.89;87.05
32735;BME280;19112;51.076;3.706;2023-07-13T11:25:01;101712.09;;;23.24;86.67
32735;BME280;19112;51.076;3.706;2023-07-13T11:27:43;101548.00;;;22.79;85.88
32735;BME280;19112;51.076;3.706;2023-07-13T11:30:24;101705.31;;;24.04;84.38
32735;BME280;19112;51.076;3.706;2023-07-13T11:36:20;101696.63;;;24.72;81.00
32735;BME280;19112;51.076;3.706;2023-07-13T11:39:19;101696.16;;;25.08;80.24
32735;BME280;19112;51.076;3.706;2023-07-13T11:42:06;101577.50;;;24.71;77.44
32735;BME280;19112;51.076;3.706;2023-07-13T11:44:35;101648.28;;;25.37;75.51
32735;BME280;19112;51.076;3.706;2023-07-13T11:47:11;101571.50;;;25.17;75.60
32735;BME280;19112;51.076;3.706;2023-07-13T11:49:48;101648.38;;;25.89;73.72
32735;BME280;19112;51.076;3.706;2023-07-13T11:52:26;101679.97;;;26.26;71.32
32735;BME280;19112;51.076;3.706;2023-07-13T11:54:57;101686.00;;;26.42;69.76
32735;BME280;19112;51.076;3.706;2023-07-13T11:57:33;101457.50;;;25.29;71.21
32735;BME280;19112;51.076;3.706;2023-07-13T12:00:09;101540.19;;;25.69;68.53
32735;BME280;19112;51.076;3.706;2023-07-13T12:02:43;101662.13;;;26.22;68.27
32735;BME280;19112;51.076;3.706;2023-07-13T12:05:12;101416.44;;;24.68;69.63
32735;BME280;19112;51.076;3.706;2023-07-13T12:07:39;101548.50;;;25.53;68.42
32735;BME280;19112;51.076;3.706;2023-07-13T12:12:40;101653.75;;;26.35;67.33
32735;BME280;19112;51.076;3.706;2023-07-13T12:15:11;101683.53;;;26.76;66.20
32735;BME280;19112;51.076;3.706;2023-07-13T12:17:37;101645.03;;;26.71;67.78
32735;BME280;19112;51.076;3.706;2023-07-13T12:22:48;101477.53;;;25.60;61.77
32735;BME280;19112;51.076;3.706;2023-07-13T12:25:16;101679.13;;;26.72;60.85
32735;BME280;19112;51.076;3.706;2023-07-13T12:27:48;101675.47;;;26.76;64.86
32735;BME280;19112;51.076;3.706;2023-07-13T12:30:27;101676.28;;;26.79;64.03
32735;BME280;19112;51.076;3.706;2023-07-13T12:33:07;101633.72;;;26.52;65.60
32735;BME280;19112;51.076;3.706;2023-07-13T12:35:49;101583.28;;;26.13;63.24
32735;BME280;19112;51.076;3.706;2023-07-13T12:38:18;101565.47;;;26.08;56.63
32735;BME280;19112;51.076;3.706;2023-07-13T12:40:49;101666.44;;;26.77;62.51
32735;BME280;19112;51.076;3.706;2023-07-13T12:43:17;101652.91;;;26.80;61.82
32735;BME280;19112;51.076;3.706;2023-07-13T12:46:03;101666.72;;;27.06;61.29
32735;BME280;19112;51.076;3.706;2023-07-13T12:48:29;101660.16;;;27.20;58.14
32735;BME280;19112;51.076;3.706;2023-07-13T12:50:56;101655.25;;;27.37;61.40
32735;BME280;19112;51.076;3.706;2023-07-13T12:53:39;101650.78;;;27.36;59.87
32735;BME280;19112;51.076;3.706;2023-07-13T12:56:05;101492.28;;;26.31;56.92
32735;BME280;19112;51.076;3.706;2023-07-13T12:58:40;101653.91;;;27.18;63.56
32735;BME280;19112;51.076;3.706;2023-07-13T13:01:12;101658.22;;;27.25;60.86
32735;BME280;19112;51.076;3.706;2023-07-13T13:03:41;101659.06;;;27.27;53.89
32735;BME280;19112;51.076;3.706;2023-07-13T13:08:47;101540.50;;;26.45;60.27
32735;BME280;19112;51.076;3.706;2023-07-13T13:11:18;101488.94;;;26.21;55.62
32735;BME280;19112;51.076;3.706;2023-07-13T13:13:45;101646.31;;;26.93;54.67
32735;BME280;19112;51.076;3.706;2023-07-13T13:16:33;101654.72;;;26.79;49.01
32735;BME280;19112;51.076;3.706;2023-07-13T13:19:16;101659.25;;;26.77;57.14
32735;BME280;19112;51.076;3.706;2023-07-13T13:21:44;101625.81;;;26.44;54.01
32735;BME280;19112;51.076;3.706;2023-07-13T13:24:23;101547.38;;;26.15;57.38
32735;BME280;19112;51.076;3.706;2023-07-13T13:26:51;101589.13;;;26.35;55.90
32735;BME280;19112;51.076;3.706;2023-07-13T13:29:21;101611.16;;;26.57;55.86
32735;BME280;19112;51.076;3.706;2023-07-13T13:31:49;101642.97;;;26.82;57.66
32735;BME280;19112;51.076;3.706;2023-07-13T13:34:17;101645.50;;;26.89;53.24
32735;BME280;19112;51.076;3.706;2023-07-13T13:36:44;101652.56;;;26.95;56.82
32735;BME280;19112;51.076;3.706;2023-07-13T13:39:33;101618.44;;;26.96;50.89
32735;BME280;19112;51.076;3.706;2023-07-13T13:41:59;101609.00;;;27.17;49.93
32735;BME280;19112;51.076;3.706;2023-07-13T13:44:25;101622.50;;;27.15;53.21
32735;BME280;19112;51.076;3.706;2023-07-13T13:46:53;101654.69;;;27.23;54.35
32735;BME280;19112;51.076;3.706;2023-07-13T13:49:26;101613.47;;;27.16;55.92